Time;durP1;ratioP1;P1;durP2;ratioP2;P2;SDS_P1;SDS_P2;PMS_P1;PMS_P2;Temp;Humidity;BMP_temperature;BMP_pressure;BME280_temperature;BME280_humidity;BME280_pressure;Samples;Min_cycle;Max_cycle;Signal;HPM_P1;HPM_P2
2022/11/26 00:01:18;;;;;;;11.30;4.47;;;4.00;99.90;;;;;;5059737;28;20059;-74
2022/11/26 00:03:44;;;;;;;12.55;3.22;;;4.00;99.90;;;;;;5056609;28;20071;-73
2022/11/26 00:06:29;;;;;;;10.80;3.70;;;4.00;99.90;;;;;;5056756;28;20048;-72
2022/11/26 00:08:55;;;;;;;11.18;3.90;;;4.00;99.90;;;;;;5063621;28;20575;-72
2022/11/26 00:11:20;;;;;;;;;;;4.00;99.90;;;;;;5062398;28;20127;-73
2022/11/26 00:13:46;;;;;;;15.10;3.95;;;3.10;99.90;;;;;;5061267;28;19928;-73
2022/11/26 00:16:13;;;;;;;;;;;4.00;99.90;;;;;;5056180;28;20040;-74
2022/11/26 00:18:39;;;;;;;13.65;4.18;;;3.90;99.90;;;;;;5056824;28;19959;-73
2022/11/26 00:21:10;;;;;;;16.80;4.22;;;2.70;99.90;;;;;;5063424;28;20045;-75
2022/11/26 00:23:36;;;;;;;14.80;4.70;;;3.90;99.90;;;;;;5060507;28;20124;-75
2022/11/26 00:26:03;;;;;;;13.68;3.90;;;3.90;99.90;;;;;;5060091;28;20041;-74
2022/11/26 00:28:32;;;;;;;11.98;3.90;;;3.90;99.90;;;;;;5067002;28;20040;-74
2022/11/26 00:31:04;;;;;;;15.07;3.97;;;3.90;99.90;;;;;;5059499;28;20496;-74
2022/11/26 00:33:30;;;;;;;12.23;4.35;;;3.80;99.90;;;;;;5062639;28;20044;-74
2022/11/26 00:36:02;;;;;;;8.77;3.40;;;3.80;99.90;;;;;;5061545;28;20047;-74
2022/11/26 00:38:29;;;;;;;10.13;3.15;;;3.80;99.90;;;;;;5058292;28;20045;-74
2022/11/26 00:40:55;;;;;;;9.85;3.60;;;3.70;99.90;;;;;;5062562;28;20408;-74
2022/11/26 00:43:21;;;;;;;10.50;3.70;;;3.70;99.90;;;;;;5060116;28;20349;-74
2022/11/26 00:45:49;;;;;;;;;;;3.70;99.90;;;;;;5060896;28;20069;-74
2022/11/26 00:48:18;;;;;;;11.05;3.10;;;3.60;99.90;;;;;;5060420;28;19929;-74
2022/11/26 00:50:47;;;;;;;8.05;3.63;;;3.70;99.90;;;;;;5061207;28;20045;-74
2022/11/26 00:53:16;;;;;;;14.23;3.70;;;3.60;99.90;;;;;;5061189;28;20119;-73
2022/11/26 00:55:46;;;;;;;9.88;3.95;;;3.70;99.90;;;;;;5060880;28;20377;-72
2022/11/26 00:58:22;;;;;;;12.88;3.50;;;3.80;99.90;;;;;;5059769;28;20374;-72
2022/11/26 01:00:48;;;;;;;11.80;3.88;;;3.50;99.90;;;;;;5061701;28;20439;-73
2022/11/26 01:03:14;;;;;;;;;;;3.70;99.90;;;;;;5062765;28;20116;-73
2022/11/26 01:05:39;;;;;;;8.18;3.33;;;3.70;99.90;;;;;;5059816;28;20007;-73
2022/11/26 01:08:18;;;;;;;;;;;3.60;99.90;;;;;;5064311;28;20040;-73
2022/11/26 01:10:44;;;;;;;9.77;3.13;;;3.60;99.90;;;;;;5057882;28;19924;-73
2022/11/26 01:13:10;;;;;;;;;;;3.50;99.90;;;;;;5063282;28;20475;-73
2022/11/26 01:15:35;;;;;;;10.88;3.50;;;3.50;99.90;;;;;;5060188;28;19943;-73
2022/11/26 01:18:08;;;;;;;;;;;3.60;99.90;;;;;;5061880;28;20093;-73
2022/11/26 01:20:33;;;;;;;9.27;3.33;;;3.60;99.90;;;;;;5059909;28;19921;-74
2022/11/26 01:22:59;;;;;;;;;;;3.50;99.90;;;;;;5063617;28;20040;-74
2022/11/26 01:25:26;;;;;;;8.50;3.10;;;3.60;99.90;;;;;;5063129;28;20007;-74
2022/11/26 01:27:52;;;;;;;12.10;2.78;;;3.60;99.90;;;;;;5063684;28;20041;-74
2022/11/26 01:30:29;;;;;;;14.77;3.50;;;3.60;99.90;;;;;;5063065;28;20052;-74
2022/11/26 01:32:55;;;;;;;14.68;4.03;;;3.60;99.90;;;;;;5064416;28;20060;-74
2022/11/26 01:35:21;;;;;;;;;;;3.60;99.90;;;;;;5063651;28;20037;-74
2022/11/26 01:37:47;;;;;;;6.75;3.13;;;3.50;99.90;;;;;;5066334;28;20007;-73
2022/11/26 01:40:31;;;;;;;14.85;3.40;;;3.60;99.90;;;;;;5062455;28;20572;-74
2022/11/26 01:43:16;;;;;;;7.50;3.17;;;3.60;99.90;;;;;;5063284;28;20471;-74
2022/11/26 01:45:41;;;;;;;11.15;3.35;;;3.60;99.90;;;;;;5061553;28;20090;-74
2022/11/26 01:48:25;;;;;;;;;;;3.60;99.90;;;;;;5065198;28;20049;-74
2022/11/26 01:51:01;;;;;;;9.10;3.28;;;3.60;99.90;;;;;;5063310;28;20043;-74
2022/11/26 01:53:32;;;;;;;10.90;3.30;;;3.60;99.90;;;;;;5064781;28;20044;-74
2022/11/26 01:56:19;;;;;;;9.45;3.42;;;3.60;99.90;;;;;;5064252;28;20392;-73
2022/11/26 01:58:52;;;;;;;8.30;3.10;;;3.50;99.90;;;;;;5062673;28;20043;-74
2022/11/26 02:01:19;;;;;;;8.60;3.40;;;3.50;99.90;;;;;;5068799;28;20067;-73
2022/11/26 02:03:55;;;;;;;9.50;3.42;;;3.50;99.90;;;;;;5067076;28;20120;-73
2022/11/26 02:06:30;;;;;;;9.95;3.03;;;3.50;99.90;;;;;;5070576;28;20032;-74
2022/11/26 02:08:57;;;;;;;6.22;3.45;;;3.50;99.90;;;;;;5065910;28;20108;-74
2022/11/26 02:11:24;;;;;;;10.38;3.30;;;3.50;99.90;;;;;;5064116;28;20480;-74
2022/11/26 02:13:54;;;;;;;13.70;3.50;;;3.50;99.90;;;;;;5066414;28;20476;-74
2022/11/26 02:16:22;;;;;;;14.85;3.40;;;3.50;99.90;;;;;;5065340;28;20098;-73
2022/11/26 02:19:13;;;;;;;10.15;3.55;;;3.60;99.90;;;;;;5061126;28;20404;-73
2022/11/26 02:21:48;;;;;;;14.77;3.78;;;3.50;99.90;;;;;;5060755;28;20473;-73
2022/11/26 02:24:36;;;;;;;10.38;3.10;;;3.50;99.90;;;;;;5062513;28;20044;-73
2022/11/26 02:27:39;;;;;;;10.23;3.47;;;3.50;99.90;;;;;;5082327;28;20056;-73
2022/11/26 02:30:16;;;;;;;11.10;3.25;;;3.40;99.90;;;;;;5064899;28;20503;-73
2022/11/26 02:32:53;;;;;;;11.88;3.55;;;3.40;99.90;;;;;;5062558;28;20376;-73
2022/11/26 02:35:48;;;;;;;10.98;3.63;;;3.40;99.90;;;;;;5061427;28;20049;-72
2022/11/26 02:38:36;;;;;;;11.25;4.03;;;3.50;99.90;;;;;;5061463;28;20053;-73
2022/11/26 02:41:02;;;;;;;15.90;3.65;;;3.60;99.90;;;;;;5064890;28;20028;-72
2022/11/26 02:43:28;;;;;;;;;;;3.50;99.90;;;;;;5061212;28;20045;-73
2022/11/26 02:46:03;;;;;;;13.35;3.35;;;3.50;99.90;;;;;;5063341;28;20364;-73
2022/11/26 02:48:34;;;;;;;9.38;3.55;;;3.50;99.90;;;;;;5060250;28;20520;-73
2022/11/26 02:51:13;;;;;;;8.23;3.28;;;3.50;99.90;;;;;;5064860;28;20052;-72
2022/11/26 02:53:40;;;;;;;11.27;3.70;;;3.40;99.90;;;;;;5058721;28;20049;-73
2022/11/26 02:56:10;;;;;;;11.27;3.40;;;3.30;99.90;;;;;;5065082;28;20036;-73
2022/11/26 02:58:39;;;;;;;12.60;3.88;;;3.70;99.90;;;;;;5059690;28;20052;-73
2022/11/26 03:01:11;;;;;;;13.35;4.18;;;3.40;99.90;;;;;;5068177;28;20127;-73
2022/11/26 03:03:43;;;;;;;9.00;3.55;;;3.50;99.90;;;;;;5061707;28;20439;-73
2022/11/26 03:06:11;;;;;;;16.95;3.65;;;3.40;99.90;;;;;;5062292;28;20072;-73
2022/11/26 03:08:37;;;;;;;9.95;3.25;;;3.50;99.90;;;;;;5061430;28;20130;-73
2022/11/26 03:11:02;;;;;;;;;;;3.50;99.90;;;;;;5065155;28;20071;-73
2022/11/26 03:13:28;;;;;;;13.68;3.70;;;4.00;99.90;;;;;;5059589;28;20011;-73
2022/11/26 03:15:54;;;;;;;;;;;3.60;99.90;;;;;;5063768;28;20041;-73
2022/11/26 03:18:19;;;;;;;10.32;3.30;;;3.80;99.90;;;;;;5061663;28;19968;-73
2022/11/26 03:20:45;;;;;;;;;;;3.90;99.90;;;;;;5079627;28;20045;-73
2022/11/26 03:23:10;;;;;;;12.05;3.75;;;4.00;99.90;;;;;;5061628;28;20011;-73
2022/11/26 03:25:36;;;;;;;;;;;4.10;99.90;;;;;;5060939;28;20048;-73
2022/11/26 03:28:02;;;;;;;15.48;4.10;;;4.10;99.90;;;;;;5062400;28;19927;-74
2022/11/26 03:30:28;;;;;;;13.18;4.68;;;4.10;99.90;;;;;;5068522;28;20072;-73
2022/11/26 03:32:53;;;;;;;;;;;4.20;99.90;;;;;;5061724;28;20514;-73
2022/11/26 03:35:19;;;;;;;9.63;3.90;;;4.20;99.90;;;;;;5061033;28;19921;-73
2022/11/26 03:37:45;;;;;;;;;;;4.20;99.90;;;;;;5063410;28;20037;-73
2022/11/26 03:40:11;;;;;;;14.27;3.92;;;4.20;99.90;;;;;;5061841;28;19924;-73
2022/11/26 03:42:39;;;;;;;9.52;3.75;;;4.20;99.90;;;;;;5061270;28;20055;-73
2022/11/26 03:45:05;;;;;;;13.32;4.25;;;4.20;99.90;;;;;;5062670;28;20037;-73
2022/11/26 03:47:31;;;;;;;;;;;4.20;99.90;;;;;;5060835;28;20456;-73
2022/11/26 03:49:56;;;;;;;12.30;4.32;;;4.40;99.90;;;;;;5062138;28;19960;-73
2022/11/26 03:52:22;;;;;;;;;;;4.10;99.90;;;;;;5059735;28;20045;-73
2022/11/26 03:54:47;;;;;;;12.20;3.70;;;4.10;99.90;;;;;;5063102;28;20394;-72
2022/11/26 03:57:13;;;;;;;;;;;4.10;99.90;;;;;;5061237;28;20060;-73
2022/11/26 03:59:38;;;;;;;17.17;3.85;;;6.20;99.90;;;;;;5060428;28;19927;-73
2022/11/26 04:02:05;;;;;;;;;;;4.10;99.90;;;;;;5061676;28;20045;-73
2022/11/26 04:04:31;;;;;;;15.75;4.10;;;4.10;99.90;;;;;;5060459;28;19932;-73
2022/11/26 04:06:56;;;;;;;;;;;4.20;99.90;;;;;;5060075;28;20055;-73
2022/11/26 04:09:25;;;;;;;15.25;4.28;;;4.20;99.90;;;;;;5063301;28;19916;-73
2022/11/26 04:11:50;;;;;;;14.20;3.92;;;4.70;99.90;;;;;;5059806;28;20404;-73
2022/11/26 04:14:16;;;;;;;;;;;4.20;99.90;;;;;;5063994;28;20040;-73
2022/11/26 04:16:45;;;;;;;12.20;3.83;;;4.10;99.90;;;;;;5058818;28;20368;-73
2022/11/26 04:19:10;;;;;;;12.23;4.15;;;4.10;99.90;;;;;;5063140;28;20071;-73
2022/11/26 04:21:36;;;;;;;;;;;4.20;99.90;;;;;;5061401;28;20072;-73
2022/11/26 04:24:02;;;;;;;15.88;4.25;;;4.60;99.90;;;;;;5060682;28;19975;-73
2022/11/26 04:26:27;;;;;;;;;;;4.10;99.90;;;;;;5066470;28;20507;-73
2022/11/26 04:28:53;;;;;;;15.05;4.60;;;4.10;99.90;;;;;;5059388;28;19924;-73
2022/11/26 04:31:18;;;;;;;;;;;4.20;99.90;;;;;;5062891;28;20029;-73
2022/11/26 04:33:44;;;;;;;12.80;4.50;;;4.20;99.90;;;;;;5059715;28;20375;-73
2022/11/26 04:36:10;;;;;;;;;;;4.30;99.90;;;;;;5061581;28;20086;-73
2022/11/26 04:38:36;;;;;;;13.98;4.32;;;4.30;99.90;;;;;;5095209;28;19928;-73
2022/11/26 04:41:02;;;;;;;13.85;3.88;;;4.40;99.90;;;;;;5060245;28;20032;-73
2022/11/26 04:43:28;;;;;;;;;;;4.50;99.90;;;;;;5061217;28;20566;-73
2022/11/26 04:45:54;;;;;;;14.68;4.93;;;4.50;99.90;;;;;;5061832;28;19921;-73
2022/11/26 04:48:19;;;;;;;;;;;4.50;99.90;;;;;;5060733;28;20136;-73
2022/11/26 04:50:45;;;;;;;13.50;4.60;;;5.20;99.90;;;;;;5061365;28;20450;-73
2022/11/26 04:53:10;;;;;;;;;;;4.50;99.90;;;;;;5060093;28;20048;-73
2022/11/26 04:55:36;;;;;;;16.90;4.55;;;4.50;99.90;;;;;;5066587;28;19924;-73
2022/11/26 04:58:02;;;;;;;;;;;4.60;99.90;;;;;;5061441;28;20492;-73
2022/11/26 05:00:27;;;;;;;13.73;5.03;;;4.60;99.90;;;;;;5065252;28;19921;-73
2022/11/26 05:02:53;;;;;;;;;;;4.50;99.90;;;;;;5066129;28;20044;-73
2022/11/26 05:05:19;;;;;;;15.77;4.18;;;4.60;99.90;;;;;;5064528;28;19920;-73
2022/11/26 05:07:44;;;;;;;;;;;4.60;99.90;;;;;;5064128;28;20036;-73
2022/11/26 05:10:11;;;;;;;14.10;4.03;;;4.60;99.90;;;;;;5067155;28;20295;-72
2022/11/26 05:12:39;;;;;;;17.13;4.78;;;4.60;99.90;;;;;;5061838;28;20053;-73
2022/11/26 05:15:06;;;;;;;16.67;6.35;;;4.70;99.90;;;;;;5063460;28;20041;-73
2022/11/26 05:17:32;;;;;;;13.88;4.80;;;4.60;99.90;;;;;;5066433;28;20068;-73
2022/11/26 05:19:57;;;;;;;12.73;4.65;;;4.50;99.90;;;;;;5063384;28;20040;-73
2022/11/26 05:22:26;;;;;;;;;;;4.70;99.90;;;;;;5063053;28;20045;-74
2022/11/26 05:24:52;;;;;;;20.05;4.70;;;4.70;99.90;;;;;;5066895;28;19921;-72
2022/11/26 05:27:17;;;;;;;;;;;4.70;99.90;;;;;;5070023;28;20399;-72
2022/11/26 05:29:46;;;;;;;16.83;4.80;;;6.60;99.90;;;;;;5065547;28;20003;-72
2022/11/26 05:32:12;;;;;;;12.35;4.90;;;4.80;99.90;;;;;;5062326;28;20041;-72
2022/11/26 05:34:38;;;;;;;;;;;4.90;99.90;;;;;;5066068;28;20403;-72
2022/11/26 05:37:03;;;;;;;13.73;4.72;;;5.00;99.90;;;;;;5063087;28;20360;-73
2022/11/26 05:39:29;;;;;;;;;;;5.20;99.90;;;;;;5065283;28;20046;-73
2022/11/26 05:41:54;;;;;;;14.02;5.00;;;5.00;99.90;;;;;;5063554;28;19920;-73
2022/11/26 05:44:20;;;;;;;;;;;4.90;99.90;;;;;;5064505;28;20041;-73
2022/11/26 05:46:45;;;;;;;16.02;4.43;;;5.20;99.90;;;;;;5064497;28;20368;-73
2022/11/26 05:49:11;;;;;;;;;;;4.90;99.90;;;;;;5064397;28;20238;-73
2022/11/26 05:51:37;;;;;;;16.30;4.63;;;4.90;99.90;;;;;;5066766;28;19951;-73
2022/11/26 05:54:02;;;;;;;;;;;4.90;99.90;;;;;;5065796;28;20527;-72
2022/11/26 05:56:28;;;;;;;14.90;5.10;;;4.90;99.90;;;;;;5062375;28;19921;-73
2022/11/26 05:58:54;;;;;;;;;;;4.90;99.90;;;;;;5071443;28;20412;-73
2022/11/26 06:01:19;;;;;;;14.48;4.88;;;6.30;99.90;;;;;;5065113;28;20272;-72
2022/11/26 06:04:03;;;;;;;;;;;4.80;99.90;;;;;;5067242;28;20044;-72
2022/11/26 06:06:29;;;;;;;15.40;4.78;;;4.80;99.90;;;;;;5069303;28;19920;-71
2022/11/26 06:08:55;;;;;;;17.50;5.00;;;4.80;99.90;;;;;;5061240;28;20033;-72
2022/11/26 06:11:20;;;;;;;;;;;4.80;99.90;;;;;;5063776;28;20301;-72
2022/11/26 06:13:46;;;;;;;12.98;4.55;;;4.70;99.90;;;;;;5062417;28;19932;-73
2022/11/26 06:16:11;;;;;;;;;;;4.80;99.90;;;;;;5062495;28;20053;-73
2022/11/26 06:18:38;;;;;;;22.98;5.00;;;4.60;99.90;;;;;;5060600;28;20011;-72
2022/11/26 06:21:05;;;;;;;12.23;4.40;;;4.70;99.90;;;;;;5062708;28;20049;-72
2022/11/26 06:23:31;;;;;;;12.85;4.90;;;4.70;99.90;;;;;;5064875;28;20094;-73
2022/11/26 06:25:57;;;;;;;17.10;4.93;;;4.60;99.90;;;;;;5064208;28;20051;-73
2022/11/26 06:28:22;;;;;;;;;;;4.60;99.90;;;;;;5066148;28;20028;-73
2022/11/26 06:30:48;;;;;;;17.30;5.05;;;5.20;99.90;;;;;;5061738;28;20291;-73
2022/11/26 06:33:14;;;;;;;;;;;4.40;99.90;;;;;;5063892;28;20047;-72
2022/11/26 06:35:39;;;;;;;19.38;6.05;;;4.40;99.90;;;;;;5061817;28;19926;-71
2022/11/26 06:38:05;;;;;;;;;;;4.30;99.90;;;;;;5061693;28;20072;-71
2022/11/26 06:40:30;;;;;;;429.90;62.90;;;4.40;99.90;;;;;;5063458;28;19916;-71
2022/11/26 06:42:56;;;;;;;;;;;4.30;99.90;;;;;;5062059;28;20041;-72
2022/11/26 06:45:22;;;;;;;62.33;30.45;;;4.30;99.90;;;;;;5064934;28;20445;-72
2022/11/26 06:47:50;;;;;;;34.42;17.88;;;4.40;99.90;;;;;;5058458;28;20120;-72
2022/11/26 06:50:18;;;;;;;19.83;8.02;;;4.40;99.90;;;;;;5059425;28;20392;-72
2022/11/26 06:52:44;;;;;;;17.05;5.05;;;4.40;99.90;;;;;;5062840;28;20775;-73
2022/11/26 06:55:10;;;;;;;;;;;4.40;99.90;;;;;;5062071;28;20044;-72
2022/11/26 06:57:36;;;;;;;12.50;5.05;;;4.70;99.90;;;;;;5064251;28;19920;-73
2022/11/26 07:00:06;;;;;;;21.10;5.90;;;4.50;99.90;;;;;;5062999;28;20388;-72
2022/11/26 07:02:32;;;;;;;16.00;5.20;;;4.40;99.90;;;;;;5062249;28;20076;-73
2022/11/26 07:04:57;;;;;;;;;;;4.50;99.90;;;;;;5063883;28;20064;-72
2022/11/26 07:07:23;;;;;;;12.55;5.60;;;4.50;99.90;;;;;;5061501;28;19924;-72
2022/11/26 07:09:49;;;;;;;;;;;4.50;99.90;;;;;;5063424;28;20095;-72
2022/11/26 07:12:14;;;;;;;13.95;5.20;;;4.60;99.90;;;;;;5060019;28;19920;-73
2022/11/26 07:14:41;;;;;;;;;;;4.60;99.90;;;;;;5063386;28;20720;-73
2022/11/26 07:17:07;;;;;;;15.55;4.93;;;4.60;99.90;;;;;;5064516;28;19931;-73
2022/11/26 07:19:32;;;;;;;;;;;4.60;99.90;;;;;;5061830;28;20032;-73
2022/11/26 07:21:58;;;;;;;15.38;5.82;;;4.60;99.90;;;;;;5061069;28;20394;-72
2022/11/26 07:24:23;;;;;;;;;;;4.60;99.90;;;;;;5061581;28;20112;-72
2022/11/26 07:26:52;;;;;;;15.07;5.50;;;4.60;99.90;;;;;;5060580;28;19920;-71
2022/11/26 07:29:20;;;;;;;23.75;7.57;;;4.60;99.90;;;;;;5062703;28;20040;-72
2022/11/26 07:31:46;;;;;;;;;;;6.90;99.90;;;;;;5063529;28;20331;-72
2022/11/26 07:34:11;;;;;;;23.70;9.23;;;4.60;99.90;;;;;;5063324;28;20291;-72
2022/11/26 07:36:41;;;;;;;;;;;4.60;99.90;;;;;;5060575;28;20044;-73
2022/11/26 07:39:09;;;;;;;16.10;6.13;;;5.20;99.90;;;;;;5060866;28;20407;-74
2022/11/26 07:41:35;;;;;;;16.67;6.07;;;4.70;99.90;;;;;;5062891;28;20044;-73
2022/11/26 07:44:03;;;;;;;;;;;4.80;99.90;;;;;;5061536;28;20029;-72
2022/11/26 07:46:29;;;;;;;10.20;5.70;;;4.70;99.90;;;;;;5061680;28;19917;-74
2022/11/26 07:48:55;;;;;;;;;;;4.90;99.90;;;;;;5061063;28;20473;-73
2022/11/26 07:51:30;;;;;;;17.35;6.35;;;5.00;99.90;;;;;;5060526;28;19917;-73
2022/11/26 07:53:57;;;;;;;23.02;7.50;;;5.00;99.90;;;;;;5059694;28;20545;-73
2022/11/26 07:56:23;;;;;;;18.77;8.30;;;5.10;99.90;;;;;;5061205;28;20051;-73
2022/11/26 07:58:49;;;;;;;;;;;5.10;99.90;;;;;;5058982;28;20408;-75
2022/11/26 08:01:17;;;;;;;19.08;5.90;;;5.20;99.90;;;;;;5055505;28;19925;-73
2022/11/26 08:03:45;;;;;;;17.98;6.03;;;5.30;99.90;;;;;;5062129;28;20492;-73
2022/11/26 08:06:14;;;;;;;15.18;6.40;;;5.40;99.90;;;;;;5060675;28;20084;-74
2022/11/26 08:08:40;;;;;;;15.98;6.13;;;5.50;99.90;;;;;;5061604;28;20055;-75
2022/11/26 08:11:18;;;;;;;20.70;6.75;;;5.60;99.90;;;;;;5060305;28;20033;-80
2022/11/26 08:13:44;;;;;;;19.58;6.55;;;5.70;99.90;;;;;;5059222;28;20476;-82
2022/11/26 08:16:11;;;;;;;18.35;6.43;;;5.70;99.90;;;;;;5058370;28;20045;-79
2022/11/26 08:18:37;;;;;;;19.02;5.80;;;5.80;99.90;;;;;;5059619;28;20037;-74
2022/11/26 08:21:02;;;;;;;;;;;7.10;99.90;;;;;;5064127;28;20040;-74
2022/11/26 08:23:30;;;;;;;16.58;5.53;;;6.10;99.90;;;;;;5088856;28;20368;-74
2022/11/26 08:25:55;;;;;;;18.58;6.00;;;6.10;99.90;;;;;;5062630;28;20044;-73
2022/11/26 08:28:21;;;;;;;;;;;6.20;99.90;;;;;;5061683;28;20040;-78
2022/11/26 08:30:47;;;;;;;16.42;9.05;;;6.20;99.90;;;;;;5060440;28;20764;-77
2022/11/26 08:33:13;;;;;;;;;;;6.30;99.90;;;;;;5059232;28;20414;-77
2022/11/26 08:35:38;;;;;;;20.42;7.18;;;6.40;99.90;;;;;;5061493;28;20003;-82
2022/11/26 08:38:04;;;;;;;;;;;6.60;99.90;;;;;;5060365;28;20041;-92
2022/11/26 08:40:30;;;;;;;14.52;7.85;;;7.10;99.90;;;;;;5062717;28;19924;-82
2022/11/26 08:42:58;;;;;;;23.98;8.98;;;7.00;99.90;;;;;;5059380;28;20037;-74
2022/11/26 08:45:24;;;;;;;;;;;7.20;99.90;;;;;;5060117;28;20049;-84
2022/11/26 08:47:49;;;;;;;17.40;7.38;;;7.30;99.90;;;;;;5059277;28;20011;-79
2022/11/26 08:50:15;;;;;;;;;;;7.30;99.90;;;;;;5060702;28;20047;-75
2022/11/26 08:52:41;;;;;;;17.25;6.75;;;7.30;99.90;;;;;;5058865;28;20656;-73
2022/11/26 08:55:07;;;;;;;17.17;6.43;;;7.30;99.90;;;;;;5061577;28;20514;-74
2022/11/26 08:57:39;;;;;;;17.98;7.22;;;7.40;99.90;;;;;;5058251;28;20032;-76
2022/11/26 09:00:05;;;;;;;21.85;7.13;;;7.60;99.90;;;;;;5058558;28;20072;-75
2022/11/26 09:02:32;;;;;;;19.58;7.95;;;7.90;99.90;;;;;;5059183;28;20044;-75
2022/11/26 09:04:58;;;;;;;18.83;8.85;;;8.00;99.90;;;;;;5060481;28;20080;-75
2022/11/26 09:07:23;;;;;;;;;;;8.30;99.90;;;;;;5060483;28;20075;-76
2022/11/26 09:09:49;;;;;;;12.30;6.20;;;8.90;99.90;;;;;;5055614;28;20299;-75
2022/11/26 09:12:18;;;;;;;;;;;8.60;99.90;;;;;;5059059;28;20404;-75
2022/11/26 09:14:43;;;;;;;15.13;5.97;;;8.40;99.90;;;;;;5059189;28;19921;-75
2022/11/26 09:17:10;;;;;;;;;;;8.40;99.90;;;;;;5061026;28;20120;-75
2022/11/26 09:19:35;;;;;;;16.42;5.95;;;8.20;99.90;;;;;;5059347;28;19920;-75
2022/11/26 09:22:01;;;;;;;;;;;8.10;99.90;;;;;;5061799;28;20399;-75
2022/11/26 09:24:27;;;;;;;15.57;5.57;;;8.00;99.90;;;;;;5057518;28;19931;-75
2022/11/26 09:26:52;;;;;;;;;;;8.70;99.90;;;;;;5063064;28;20036;-75
2022/11/26 09:29:23;;;;;;;13.70;5.78;;;7.90;99.90;;;;;;5057608;28;19939;-75
2022/11/26 09:31:49;;;;;;;16.08;6.45;;;7.80;99.90;;;;;;5061575;28;20052;-75
2022/11/26 09:34:15;;;;;;;12.60;6.03;;;7.80;99.90;;;;;;5058920;28;20044;-74
2022/11/26 09:36:41;;;;;;;;;;;7.80;99.90;;;;;;5061437;28;20045;-75
2022/11/26 09:39:06;;;;;;;19.02;9.93;;;7.80;99.90;;;;;;5061860;28;19924;-75
2022/11/26 09:41:48;;;;;;;18.75;8.82;;;7.70;99.90;;;;;;5058033;28;20052;-75
2022/11/26 09:44:32;;;;;;;19.50;10.15;;;7.70;99.90;;;;;;5061201;28;20059;-75
2022/11/26 09:47:21;;;;;;;33.15;16.10;;;7.80;99.90;;;;;;5062572;28;20504;-76
2022/11/26 09:50:07;;;;;;;19.60;10.68;;;7.90;99.90;;;;;;5061890;28;20278;-76
2022/11/26 09:52:41;;;;;;;21.35;9.32;;;7.90;99.90;;;;;;5064111;28;20076;-78
2022/11/26 09:55:17;;;;;;;22.25;9.55;;;7.90;99.90;;;;;;5062854;28;20044;-76
2022/11/26 09:57:50;;;;;;;21.17;9.98;;;8.00;99.90;;;;;;5063442;28;20540;-79
2022/11/26 10:00:29;;;;;;;24.70;8.45;;;8.00;99.90;;;;;;5064197;28;20076;-83
2022/11/26 10:02:56;;;;;;;17.08;8.20;;;8.20;99.90;;;;;;5060152;28;20155;-73
2022/11/26 10:05:33;;;;;;;20.85;7.13;;;8.90;99.90;;;;;;5071568;28;20072;-72
2022/11/26 10:08:05;;;;;;;24.10;11.73;;;8.10;99.90;;;;;;5066545;28;20111;-73
2022/11/26 10:10:50;;;;;;;26.98;12.93;;;8.20;99.90;;;;;;5063637;28;20037;-73
2022/11/26 10:13:37;;;;;;;33.72;23.13;;;8.20;99.90;;;;;;5073149;28;20385;-72
2022/11/26 10:16:13;;;;;;;39.28;25.63;;;8.20;99.90;;;;;;5063374;28;20045;-73
2022/11/26 10:19:03;;;;;;;26.25;16.15;;;8.30;99.90;;;;;;5062333;28;20450;-71
2022/11/26 10:21:41;;;;;;;29.48;16.70;;;8.30;99.90;;;;;;5058320;28;20040;-72
2022/11/26 10:24:28;;;;;;;22.35;11.25;;;8.30;99.90;;;;;;5064856;28;20044;-71
2022/11/26 10:26:56;;;;;;;22.13;12.15;;;8.30;99.90;;;;;;5065393;28;20043;-67
2022/11/26 10:29:38;;;;;;;16.60;8.52;;;8.40;99.90;;;;;;5060476;28;20037;-71
2022/11/26 10:32:26;;;;;;;26.98;13.13;;;8.50;99.90;;;;;;5063393;28;20388;-70
2022/11/26 10:34:54;;;;;;;21.98;9.93;;;8.50;99.90;;;;;;5061881;28;20047;-69
2022/11/26 10:37:22;;;;;;;23.20;10.82;;;8.50;99.90;;;;;;5058803;28;20169;-68
2022/11/26 10:39:54;;;;;;;21.38;11.27;;;8.50;99.90;;;;;;5064015;28;20048;-70
2022/11/26 10:42:21;;;;;;;25.85;12.10;;;8.60;99.90;;;;;;5059951;28;20136;-67
2022/11/26 10:44:50;;;;;;;35.55;19.83;;;8.70;99.90;;;;;;5064723;28;20369;-69
2022/11/26 10:47:28;;;;;;;18.15;9.85;;;8.70;99.90;;;;;;5061784;28;20059;-67
2022/11/26 10:50:24;;;;;;;22.00;10.20;;;8.90;99.90;;;;;;5058253;28;20032;-67
2022/11/26 10:52:51;;;;;;;31.50;17.05;;;8.90;99.90;;;;;;5062277;28;20051;-67
2022/11/26 10:55:33;;;;;;;24.85;15.38;;;9.00;99.90;;;;;;5061704;28;20059;-68
2022/11/26 10:58:04;;;;;;;25.88;14.68;;;10.30;99.90;;;;;;5062788;28;20049;-68
2022/11/26 11:00:48;;;;;;;23.52;14.02;;;8.90;99.90;;;;;;5062279;28;20056;-68
2022/11/26 11:03:21;;;;;;;19.95;9.43;;;9.00;99.90;;;;;;5059739;28;20381;-68
2022/11/26 11:05:47;;;;;;;29.40;11.30;;;9.10;99.90;;;;;;5063740;28;20499;-68
2022/11/26 11:08:32;;;;;;;27.55;10.65;;;9.20;99.90;;;;;;5061707;28;20120;-68
2022/11/26 11:11:00;;;;;;;21.33;9.30;;;9.30;99.90;;;;;;5060864;28;20044;-68
2022/11/26 11:14:00;;;;;;;24.75;10.43;;;9.70;99.90;;;;;;5060647;28;20060;-67
2022/11/26 11:16:38;;;;;;;22.42;10.93;;;10.50;99.90;;;;;;5038745;28;20052;-68
2022/11/26 11:19:19;;;;;;;18.70;8.27;;;11.30;99.90;;;;;;5062112;28;20071;-68
2022/11/26 11:21:45;;;;;;;20.85;9.80;;;12.10;99.90;;;;;;5061967;28;20044;-68
2022/11/26 11:24:21;;;;;;;24.35;9.27;;;12.60;99.90;;;;;;5059513;28;20041;-68
2022/11/26 11:26:49;;;;;;;19.58;8.50;;;13.00;99.90;;;;;;5062801;28;20094;-67
2022/11/26 11:29:36;;;;;;;20.23;7.78;;;13.30;99.90;;;;;;5061962;28;20049;-68
2022/11/26 11:32:05;;;;;;;18.13;7.57;;;13.90;99.90;;;;;;5058562;28;20373;-67
2022/11/26 11:34:33;;;;;;;35.85;25.23;;;14.70;99.90;;;;;;5063374;28;20044;-67
2022/11/26 11:37:11;;;;;;;25.17;14.35;;;15.10;99.90;;;;;;5061402;28;20037;-69
2022/11/26 11:39:37;;;;;;;27.70;13.52;;;14.90;99.90;;;;;;5060704;28;20480;-67
2022/11/26 11:42:19;;;;;;;41.58;19.55;;;14.40;99.90;;;;;;5068684;28;20044;-68
2022/11/26 11:44:50;;;;;;;22.50;8.40;;;13.90;99.90;;;;;;5059032;28;20037;-67
2022/11/26 11:47:45;;;;;;;20.40;8.25;;;13.40;99.90;;;;;;5061651;28;20042;-67
2022/11/26 11:50:18;;;;;;;18.20;6.78;;;13.10;99.90;;;;;;5062810;28;20071;-67
2022/11/26 11:53:13;;;;;;;14.85;6.07;;;12.40;99.90;;;;;;5061365;28;20032;-68
2022/11/26 11:55:57;;;;;;;18.63;7.05;;;12.60;99.90;;;;;;5061966;28;20051;-67
2022/11/26 11:58:41;;;;;;;17.13;7.15;;;13.40;99.90;;;;;;5063114;28;20052;-69
2022/11/26 12:01:16;;;;;;;16.48;6.90;;;14.20;99.90;;;;;;5058698;28;20523;-66
2022/11/26 12:04:07;;;;;;;20.55;7.57;;;14.10;99.90;;;;;;5061132;28;20409;-68
2022/11/26 12:07:05;;;;;;;17.38;7.05;;;14.30;99.90;;;;;;5059606;28;20047;-68
2022/11/26 12:09:50;;;;;;;19.60;7.00;;;14.20;99.90;;;;;;5060074;28;20043;-66
2022/11/26 12:12:58;;;;;;;19.10;7.55;;;14.10;99.90;;;;;;5061852;28;20124;-68
2022/11/26 12:15:28;;;;;;;16.58;6.68;;;13.90;99.90;;;;;;5012453;28;20075;-67
2022/11/26 12:18:05;;;;;;;18.17;6.82;;;13.70;99.90;;;;;;5029567;28;20142;-66
2022/11/26 12:20:37;;;;;;;18.95;7.03;;;13.40;99.90;;;;;;5039028;28;20117;-67
2022/11/26 12:23:22;;;;;;;18.25;7.15;;;12.70;99.90;;;;;;5065870;28;20125;-68
2022/11/26 12:25:53;;;;;;;16.85;7.30;;;12.40;99.90;;;;;;5062437;28;20458;-66
2022/11/26 12:28:25;;;;;;;16.33;7.45;;;11.80;99.90;;;;;;5058474;28;20144;-69
2022/11/26 12:31:06;;;;;;;20.77;7.78;;;11.50;99.90;;;;;;5062914;28;20396;-69
2022/11/26 12:33:31;;;;;;;15.55;7.13;;;11.10;99.90;;;;;;5060628;28;20475;-69
2022/11/26 12:36:09;;;;;;;18.98;6.82;;;11.00;99.90;;;;;;5062718;28;20539;-69
2022/11/26 12:38:45;;;;;;;16.30;7.63;;;10.80;99.90;;;;;;5060806;28;20087;-69
2022/11/26 12:41:32;;;;;;;18.67;6.75;;;10.60;99.90;;;;;;5059827;28;20067;-67
2022/11/26 12:44:10;;;;;;;;;;;10.40;99.90;;;;;;5063665;28;20072;-68
2022/11/26 12:46:48;;;;;;;17.65;7.15;;;10.30;99.90;;;;;;5060266;28;19948;-68
2022/11/26 12:49:28;;;;;;;16.88;7.60;;;10.30;99.90;;;;;;5058666;28;20072;-68
2022/11/26 12:52:12;;;;;;;19.40;7.55;;;10.20;99.90;;;;;;5057900;28;20048;-69
2022/11/26 12:54:47;;;;;;;17.73;7.50;;;10.20;99.90;;;;;;5059955;28;20484;-70
2022/11/26 12:57:47;;;;;;;19.90;8.00;;;10.20;99.90;;;;;;5060098;28;20575;-70
2022/11/26 13:00:22;;;;;;;20.95;8.07;;;10.00;99.90;;;;;;5053931;28;20048;-68
2022/11/26 13:02:49;;;;;;;21.70;8.43;;;9.90;99.90;;;;;;5060961;28;20053;-67
2022/11/26 13:05:30;;;;;;;22.30;8.75;;;9.90;99.90;;;;;;5060105;28;20563;-67
2022/11/26 13:07:58;;;;;;;17.85;8.18;;;9.80;99.90;;;;;;5058284;28;20045;-67
2022/11/26 13:10:52;;;;;;;26.70;7.82;;;9.80;99.90;;;;;;5059875;28;20040;-69
2022/11/26 13:13:51;;;;;;;14.88;7.53;;;9.80;99.90;;;;;;5059675;28;20466;-69
2022/11/26 13:16:54;;;;;;;19.73;7.78;;;9.80;99.90;;;;;;5062328;28;20052;-66
2022/11/26 13:19:35;;;;;;;18.55;8.05;;;9.60;99.90;;;;;;5062227;28;20047;-67
2022/11/26 13:22:33;;;;;;;19.33;7.70;;;9.60;99.90;;;;;;5063857;28;20040;-67
2022/11/26 13:25:48;;;;;;;20.42;8.52;;;9.60;99.90;;;;;;5050731;28;20492;-66